createdAt,value
2022-11-29T00:04:13.142Z,5.26
2022-11-29T00:09:14.501Z,5.25
2022-11-29T00:14:17.108Z,5.30
2022-11-29T00:19:19.609Z,5.26
2022-11-29T00:24:20.502Z,5.35
2022-11-29T00:29:21.396Z,5.29
2022-11-29T00:34:23.545Z,5.21
2022-11-29T00:39:24.399Z,5.23
2022-11-29T00:44:25.169Z,5.27
2022-11-29T00:49:27.322Z,5.31
2022-11-29T00:54:28.175Z,5.37
2022-11-29T00:59:30.321Z,5.49
2022-11-29T01:04:32.500Z,5.36
2022-11-29T01:09:33.329Z,5.42
2022-11-29T01:14:34.155Z,5.54
2022-11-29T01:19:36.358Z,5.49
2022-11-29T01:24:37.162Z,5.46
2022-11-29T01:29:38.016Z,5.55
2022-11-29T01:34:40.701Z,5.61
2022-11-29T01:39:41.486Z,5.56
2022-11-29T01:45:02.224Z,5.62
2022-11-29T01:50:05.554Z,5.60
2022-11-29T01:55:08.262Z,5.56
2022-11-29T02:00:12.904Z,5.54
2022-11-29T02:05:17.910Z,5.37
2022-11-29T02:10:19.178Z,5.43
2022-11-29T02:15:33.459Z,5.36
2022-11-29T02:21:03.447Z,5.32
2022-11-29T02:26:20.554Z,5.27
2022-11-29T02:32:01.071Z,5.17
2022-11-29T02:37:23.458Z,5.08
2022-11-29T02:42:56.037Z,5.02
2022-11-29T02:48:13.715Z,4.91
2022-11-29T02:53:25.849Z,4.79
2022-11-29T02:58:32.622Z,4.79
2022-11-29T03:03:39.656Z,4.76
2022-11-29T03:08:51.285Z,4.79
2022-11-29T03:13:59.415Z,4.78
2022-11-29T03:19:06.969Z,4.71
2022-11-29T03:24:15.747Z,4.72
2022-11-29T03:29:26.070Z,4.68
2022-11-29T03:34:37.960Z,4.70
2022-11-29T03:39:50.473Z,4.66
2022-11-29T03:44:58.328Z,4.69
2022-11-29T03:50:04.700Z,4.66
2022-11-29T03:55:20.644Z,4.64
2022-11-29T04:00:22.424Z,4.65
2022-11-29T04:05:40.935Z,4.68
2022-11-29T04:11:08.965Z,4.66
2022-11-29T04:16:57.588Z,4.66
2022-11-29T04:22:21.622Z,4.62
2022-11-29T04:27:42.465Z,4.61
2022-11-29T04:33:26.581Z,4.65
2022-11-29T04:38:38.392Z,4.66
2022-11-29T04:43:55.534Z,4.67
2022-11-29T04:49:19.194Z,4.62
2022-11-29T04:54:28.858Z,4.62
2022-11-29T04:59:40.241Z,4.63
2022-11-29T05:04:52.166Z,4.62
2022-11-29T05:10:03.899Z,4.57
2022-11-29T05:15:45.957Z,4.62
2022-11-29T05:20:54.699Z,4.63
2022-11-29T05:26:02.103Z,4.59
2022-11-29T05:31:26.980Z,4.66
2022-11-29T05:36:39.983Z,4.66
2022-11-29T05:41:54.596Z,4.63
2022-11-29T05:47:00.512Z,4.67
2022-11-29T05:52:19.072Z,4.65
2022-11-29T05:57:41.253Z,4.64
2022-11-29T06:02:54.734Z,4.60
2022-11-29T06:08:03.034Z,4.67
2022-11-29T06:13:17.382Z,4.62
2022-11-29T06:18:48.571Z,4.65
2022-11-29T06:24:25.925Z,4.63
2022-11-29T06:29:35.014Z,4.62
2022-11-29T06:34:48.050Z,4.63
2022-11-29T06:39:49.654Z,4.65
2022-11-29T06:44:50.885Z,4.66
2022-11-29T06:49:59.248Z,4.68
2022-11-29T06:55:18.842Z,4.68
2022-11-29T07:00:22.360Z,4.65
2022-11-29T07:05:28.501Z,4.64
2022-11-29T07:10:32.119Z,4.64
2022-11-29T07:15:33.646Z,4.62
2022-11-29T07:20:44.883Z,4.62
2022-11-29T07:26:00.972Z,4.62
2022-11-29T07:31:10.217Z,4.71
2022-11-29T07:36:19.407Z,4.58
2022-11-29T07:41:28.704Z,4.71
2022-11-29T07:46:29.614Z,4.75
2022-11-29T07:51:33.022Z,4.78
2022-11-29T07:56:33.852Z,4.77
2022-11-29T08:01:34.923Z,4.88
2022-11-29T08:06:37.569Z,4.85
2022-11-29T08:11:38.361Z,4.99
2022-11-29T08:16:39.167Z,5.08
2022-11-29T08:21:46.981Z,5.11
2022-11-29T08:26:47.840Z,5.11
2022-11-29T08:31:53.314Z,4.98
2022-11-29T08:36:57.268Z,5.26
2022-11-29T08:41:58.092Z,5.31
2022-11-29T08:47:16.310Z,5.46
2022-11-29T08:52:35.843Z,5.32
2022-11-29T08:57:41.003Z,5.47
2022-11-29T09:02:42.186Z,5.47
2022-11-29T09:07:44.444Z,5.48
2022-11-29T09:12:45.724Z,5.57
2022-11-29T09:17:46.611Z,5.62
2022-11-29T09:22:48.727Z,5.60
2022-11-29T09:27:49.540Z,5.70
2022-11-29T09:32:50.305Z,5.76
2022-11-29T09:37:52.520Z,5.89
2022-11-29T09:43:01.679Z,5.90
2022-11-29T09:48:37.252Z,5.96
2022-11-29T09:53:57.910Z,5.95
2022-11-29T09:59:01.239Z,5.85
2022-11-29T10:04:05.205Z,6.07
2022-11-29T10:09:15.807Z,6.06
2022-11-29T10:14:20.667Z,5.95
2022-11-29T10:19:28.715Z,6.08
2022-11-29T10:24:32.539Z,6.22
2022-11-29T10:29:34.377Z,6.14
2022-11-29T10:34:35.277Z,6.25
2022-11-29T10:39:43.066Z,6.28
2022-11-29T10:44:44.309Z,6.16
2022-11-29T10:49:45.388Z,6.18
2022-11-29T10:54:49.698Z,6.17
2022-11-29T11:00:01.585Z,6.20
2022-11-29T11:05:02.673Z,6.23
2022-11-29T11:10:08.080Z,6.12
2022-11-29T11:15:27.574Z,6.24
2022-11-29T11:20:31.590Z,6.22
2022-11-29T11:25:36.104Z,6.09
2022-11-29T11:30:37.133Z,6.17
2022-11-29T11:35:37.983Z,6.09
2022-11-29T11:40:40.834Z,6.16
2022-11-29T11:45:41.736Z,6.34
2022-11-29T11:50:45.800Z,6.32
2022-11-29T11:56:00.210Z,6.33
2022-11-29T12:01:15.192Z,6.40
2022-11-29T12:06:28.362Z,6.38
2022-11-29T12:11:38.021Z,6.39
2022-11-29T12:16:41.563Z,6.49
2022-11-29T12:21:48.217Z,6.44
2022-11-29T12:26:58.990Z,6.44
2022-11-29T12:32:19.871Z,6.40
2022-11-29T12:37:26.395Z,6.42
2022-11-29T12:42:41.832Z,6.33
2022-11-29T12:47:53.475Z,6.37
2022-11-29T12:53:06.142Z,6.38
2022-11-29T12:58:15.195Z,6.48
2022-11-29T13:03:23.805Z,6.49
2022-11-29T13:08:58.436Z,6.46
2022-11-29T13:14:41.112Z,6.41
2022-11-29T13:19:37.942Z,6.44
2022-11-29T13:24:43.578Z,6.21
2022-11-29T13:29:46.564Z,6.30
2022-11-29T13:34:50.528Z,6.26
2022-11-29T13:40:06.432Z,6.26
2022-11-29T13:45:22.589Z,6.09
2022-11-29T13:50:39.869Z,6.18
2022-11-29T13:55:46.758Z,6.07
2022-11-29T14:00:53.109Z,6.08
2022-11-29T14:06:04.234Z,5.97
2022-11-29T14:11:10.137Z,6.00
2022-11-29T14:16:20.820Z,5.98
2022-11-29T14:21:21.644Z,5.87
2022-11-29T14:26:31.489Z,5.82
2022-11-29T14:31:52.105Z,5.84
2022-11-29T14:37:00.346Z,5.79
2022-11-29T14:42:14.718Z,5.80
2022-11-29T14:47:24.060Z,5.73
2022-11-29T14:52:30.755Z,5.64
2022-11-29T14:58:06.038Z,5.57
2022-11-29T15:03:13.839Z,5.64
2022-11-29T15:08:18.915Z,5.61
2022-11-29T15:13:27.092Z,5.52
2022-11-29T15:19:00.867Z,5.40
2022-11-29T15:24:10.563Z,5.50
2022-11-29T15:29:15.139Z,5.41
2022-11-29T15:34:23.840Z,5.43
2022-11-29T15:39:35.339Z,5.46
2022-11-29T15:44:36.150Z,5.43
2022-11-29T15:49:38.355Z,5.37
2022-11-29T15:54:43.232Z,5.36
2022-11-29T15:59:49.178Z,5.23
2022-11-29T16:04:54.897Z,5.31
2022-11-29T16:09:59.394Z,5.18
2022-11-29T16:15:02.097Z,5.13
2022-11-29T16:20:24.772Z,5.32
2022-11-29T16:25:27.045Z,5.23
2022-11-29T16:30:31.789Z,5.29
2022-11-29T16:35:34.911Z,5.34
2022-11-29T16:40:36.251Z,5.27
2022-11-29T16:45:38.783Z,5.29
2022-11-29T16:50:42.019Z,5.24
2022-11-29T16:55:42.813Z,5.24
2022-11-29T17:00:43.673Z,5.33
2022-11-29T17:05:45.963Z,5.34
2022-11-29T17:10:46.797Z,5.37
2022-11-29T17:15:47.637Z,5.34
2022-11-29T17:20:49.869Z,5.38
2022-11-29T17:25:57.500Z,5.37
2022-11-29T17:30:58.357Z,5.36
2022-11-29T17:36:06.950Z,5.30
2022-11-29T17:41:08.959Z,5.41
2022-11-29T17:46:10.474Z,5.27
2022-11-29T17:51:29.269Z,5.72
2022-11-29T17:56:34.698Z,5.66
2022-11-29T18:01:37.134Z,5.56
2022-11-29T18:06:41.444Z,5.53
2022-11-29T18:11:48.685Z,5.46
2022-11-29T18:16:50.559Z,5.44
2022-11-29T18:21:52.886Z,5.50
2022-11-29T18:26:53.732Z,5.49
2022-11-29T18:31:54.556Z,5.32
2022-11-29T18:36:56.713Z,5.20
2022-11-29T18:41:57.543Z,5.22
2022-11-29T18:46:58.549Z,5.32
2022-11-29T18:52:00.693Z,5.28
2022-11-29T18:57:01.511Z,5.30
2022-11-29T19:02:02.300Z,5.31
2022-11-29T19:07:04.464Z,5.24
2022-11-29T19:12:05.969Z,5.31
2022-11-29T19:17:06.849Z,5.26
2022-11-29T19:22:09.004Z,5.39
2022-11-29T19:27:09.831Z,5.23
2022-11-29T19:32:10.593Z,5.23
2022-11-29T19:37:12.754Z,5.25
2022-11-29T19:42:13.545Z,5.25
2022-11-29T19:47:14.373Z,5.23
2022-11-29T19:52:16.576Z,5.22
2022-11-29T19:57:17.391Z,5.22
2022-11-29T20:02:18.277Z,5.04
2022-11-29T20:07:20.638Z,5.14
2022-11-29T20:12:21.497Z,5.16
2022-11-29T20:17:22.317Z,5.16
2022-11-29T20:22:24.480Z,5.18
2022-11-29T20:27:25.397Z,5.05
2022-11-29T20:32:26.402Z,4.99
2022-11-29T20:37:49.399Z,5.11
2022-11-29T20:43:12.944Z,5.07
2022-11-29T20:48:18.086Z,4.99
2022-11-29T20:53:31.620Z,4.90
2022-11-29T20:58:32.517Z,4.72
2022-11-29T21:03:33.338Z,4.59
2022-11-29T21:08:36.075Z,4.56
2022-11-29T21:13:38.116Z,4.57
2022-11-29T21:18:39.635Z,4.52
2022-11-29T21:24:00.116Z,4.52
2022-11-29T21:29:13.618Z,4.41
2022-11-29T21:34:14.469Z,4.38
2022-11-29T21:39:17.176Z,4.37
2022-11-29T21:44:18.011Z,4.43
2022-11-29T21:49:18.830Z,4.40
2022-11-29T21:54:20.971Z,4.41
2022-11-29T21:59:22.051Z,4.50
2022-11-29T22:04:25.142Z,4.49
2022-11-29T22:09:27.273Z,4.44
2022-11-29T22:14:28.110Z,4.43
2022-11-29T22:19:30.870Z,4.45
2022-11-29T22:24:35.323Z,4.48
2022-11-29T22:29:36.148Z,4.49
2022-11-29T22:34:37.632Z,4.52
2022-11-29T22:39:39.819Z,4.51
2022-11-29T22:44:41.224Z,4.58
2022-11-29T22:49:42.130Z,4.59
2022-11-29T22:54:44.412Z,4.60
2022-11-29T22:59:45.378Z,4.55
2022-11-29T23:04:46.418Z,4.50
2022-11-29T23:09:48.702Z,4.48
2022-11-29T23:14:55.799Z,4.52
2022-11-29T23:19:57.255Z,4.52
2022-11-29T23:24:59.393Z,4.47
2022-11-29T23:30:00.202Z,4.51
2022-11-29T23:35:01.013Z,4.51
2022-11-29T23:40:03.123Z,4.54
2022-11-29T23:45:03.969Z,4.49
2022-11-29T23:50:05.133Z,4.52
2022-11-29T23:55:07.903Z,4.58
